sensor_id;sensor_type;location;lat;lon;timestamp;pressure;altitude;pressure_sealevel;temperature;humidity
54918;BME280;40818;50.562;7.454;2023-10-19T00:09:04;95806.03;;;8.84;100.00
54918;BME280;40818;50.562;7.454;2023-10-19T00:19:11;95806.97;;;8.93;100.00
54918;BME280;40818;50.562;7.454;2023-10-19T00:29:22;95808.63;;;9.03;100.00
54918;BME280;40818;50.562;7.454;2023-10-19T00:39:40;95790.47;;;9.13;100.00
54918;BME280;40818;50.562;7.454;2023-10-19T00:49:51;95802.84;;;9.19;100.00
54918;BME280;40818;50.562;7.454;2023-10-19T00:59:55;95814.28;;;9.27;100.00
54918;BME280;40818;50.562;7.454;2023-10-19T01:10:14;95785.78;;;9.36;100.00
54918;BME280;40818;50.562;7.454;2023-10-19T01:20:22;95775.38;;;9.46;100.00
54918;BME280;40818;50.562;7.454;2023-10-19T01:30:37;95773.03;;;9.63;100.00
54918;BME280;40818;50.562;7.454;2023-10-19T01:40:42;95780.06;;;9.80;100.00
54918;BME280;40818;50.562;7.454;2023-10-19T01:50:52;95774.09;;;9.98;100.00
54918;BME280;40818;50.562;7.454;2023-10-19T02:00:55;95760.13;;;10.08;100.00
54918;BME280;40818;50.562;7.454;2023-10-19T02:11:03;95759.41;;;10.16;100.00
54918;BME280;40818;50.562;7.454;2023-10-19T02:21:14;95754.22;;;10.16;100.00
54918;BME280;40818;50.562;7.454;2023-10-19T02:31:25;95746.28;;;10.18;100.00
54918;BME280;40818;50.562;7.454;2023-10-19T02:41:28;95761.91;;;10.08;100.00
54918;BME280;40818;50.562;7.454;2023-10-19T02:51:39;95753.16;;;10.09;100.00
54918;BME280;40818;50.562;7.454;2023-10-19T03:01:45;95744.31;;;10.02;100.00
54918;BME280;40818;50.562;7.454;2023-10-19T03:11:51;95736.13;;;10.06;100.00
54918;BME280;40818;50.562;7.454;2023-10-19T03:21:57;95723.97;;;10.07;100.00
54918;BME280;40818;50.562;7.454;2023-10-19T03:32:04;95713.69;;;10.15;100.00
54918;BME280;40818;50.562;7.454;2023-10-19T03:42:07;95709.63;;;10.31;100.00
54918;BME280;40818;50.562;7.454;2023-10-19T03:52:17;95700.97;;;10.40;100.00
54918;BME280;40818;50.562;7.454;2023-10-19T07:51:23;95713.94;;;12.14;100.00
54918;BME280;40818;50.562;7.454;2023-10-19T08:01:26;95690.72;;;12.54;100.00
54918;BME280;40818;50.562;7.454;2023-10-19T08:11:32;95674.91;;;12.96;100.00
54918;BME280;40818;50.562;7.454;2023-10-19T08:21:36;95674.84;;;13.38;100.00
54918;BME280;40818;50.562;7.454;2023-10-19T08:31:43;95673.97;;;13.93;100.00
54918;BME280;40818;50.562;7.454;2023-10-19T08:41:47;95673.78;;;14.18;100.00
54918;BME280;40818;50.562;7.454;2023-10-19T08:51:58;95668.41;;;14.43;100.00
54918;BME280;40818;50.562;7.454;2023-10-19T09:02:05;95662.13;;;14.52;100.00
54918;BME280;40818;50.562;7.454;2023-10-19T09:12:12;95643.75;;;14.83;100.00
54918;BME280;40818;50.562;7.454;2023-10-19T09:22:15;95622.53;;;15.01;100.00
54918;BME280;40818;50.562;7.454;2023-10-19T09:32:26;95601.06;;;15.21;100.00
54918;BME280;40818;50.562;7.454;2023-10-19T09:42:30;95621.09;;;15.44;100.00
54918;BME280;40818;50.562;7.454;2023-10-19T09:52:37;95620.88;;;15.60;100.00
54918;BME280;40818;50.562;7.454;2023-10-19T10:02:42;95629.91;;;15.58;100.00
54918;BME280;40818;50.562;7.454;2023-10-19T10:12:49;95615.75;;;15.52;100.00
54918;BME280;40818;50.562;7.454;2023-10-19T10:23:16;95615.16;;;15.72;100.00
54918;BME280;40818;50.562;7.454;2023-10-19T10:33:42;95615.88;;;15.65;100.00
54918;BME280;40818;50.562;7.454;2023-10-19T10:43:49;95608.84;;;15.81;100.00
54918;BME280;40818;50.562;7.454;2023-10-19T10:53:57;95603.06;;;16.07;100.00
54918;BME280;40818;50.562;7.454;2023-10-19T11:04:08;95601.69;;;16.11;100.00
54918;BME280;40818;50.562;7.454;2023-10-19T11:14:15;95601.56;;;16.19;100.00
54918;BME280;40818;50.562;7.454;2023-10-19T11:24:24;95582.31;;;16.06;100.00
54918;BME280;40818;50.562;7.454;2023-10-19T11:34:32;95590.78;;;15.71;100.00
54918;BME280;40818;50.562;7.454;2023-10-19T11:44:36;95557.84;;;15.55;100.00
54918;BME280;40818;50.562;7.454;2023-10-19T11:54:42;95577.16;;;15.39;100.00
54918;BME280;40818;50.562;7.454;2023-10-19T12:04:46;95572.88;;;15.31;100.00
54918;BME280;40818;50.562;7.454;2023-10-19T12:14:52;95565.13;;;15.23;100.00
54918;BME280;40818;50.562;7.454;2023-10-19T12:24:56;95556.88;;;14.90;100.00
54918;BME280;40818;50.562;7.454;2023-10-19T12:35:03;95548.22;;;14.89;100.00
54918;BME280;40818;50.562;7.454;2023-10-19T12:45:12;95550.94;;;14.81;100.00
54918;BME280;40818;50.562;7.454;2023-10-19T12:55:18;95529.66;;;14.84;100.00
54918;BME280;40818;50.562;7.454;2023-10-19T13:05:22;95547.41;;;14.89;100.00
54918;BME280;40818;50.562;7.454;2023-10-19T13:15:29;95534.69;;;14.71;100.00
54918;BME280;40818;50.562;7.454;2023-10-19T13:25:33;95517.00;;;14.43;100.00
54918;BME280;40818;50.562;7.454;2023-10-19T13:35:50;95525.66;;;14.58;100.00
54918;BME280;40818;50.562;7.454;2023-10-19T13:45:53;95533.81;;;14.63;100.00
54918;BME280;40818;50.562;7.454;2023-10-19T13:56:00;95523.97;;;14.50;100.00
54918;BME280;40818;50.562;7.454;2023-10-19T14:06:04;95493.22;;;14.38;100.00
54918;BME280;40818;50.562;7.454;2023-10-19T14:16:11;95466.63;;;13.89;100.00
54918;BME280;40818;50.562;7.454;2023-10-19T14:26:14;95425.59;;;13.45;100.00
54918;BME280;40818;50.562;7.454;2023-10-19T14:36:20;95386.00;;;13.26;100.00
54918;BME280;40818;50.562;7.454;2023-10-19T14:46:24;95370.81;;;13.30;100.00
54918;BME280;40818;50.562;7.454;2023-10-19T14:56:32;95357.38;;;13.41;100.00
54918;BME280;40818;50.562;7.454;2023-10-19T15:06:36;95346.81;;;13.58;100.00
54918;BME280;40818;50.562;7.454;2023-10-19T15:16:42;95344.78;;;13.68;100.00
54918;BME280;40818;50.562;7.454;2023-10-19T15:26:46;95340.06;;;13.63;100.00
54918;BME280;40818;50.562;7.454;2023-10-19T15:36:52;95339.31;;;13.78;100.00
54918;BME280;40818;50.562;7.454;2023-10-19T15:46:55;95350.88;;;13.90;100.00
54918;BME280;40818;50.562;7.454;2023-10-19T15:57:02;95342.97;;;13.98;100.00
54918;BME280;40818;50.562;7.454;2023-10-19T16:07:06;95351.63;;;13.99;100.00
54918;BME280;40818;50.562;7.454;2023-10-19T16:17:12;95339.63;;;13.60;100.00
54918;BME280;40818;50.562;7.454;2023-10-19T16:27:17;95314.22;;;13.39;100.00
54918;BME280;40818;50.562;7.454;2023-10-19T16:37:23;95347.31;;;13.38;100.00
54918;BME280;40818;50.562;7.454;2023-10-19T16:47:29;95327.25;;;13.39;100.00
54918;BME280;40818;50.562;7.454;2023-10-19T16:57:35;95316.50;;;13.42;100.00
54918;BME280;40818;50.562;7.454;2023-10-19T17:07:39;95311.53;;;13.09;100.00
54918;BME280;40818;50.562;7.454;2023-10-19T17:17:45;95332.38;;;13.09;100.00
54918;BME280;40818;50.562;7.454;2023-10-19T17:27:49;95328.91;;;12.93;100.00
54918;BME280;40818;50.562;7.454;2023-10-19T17:37:55;95329.69;;;12.79;100.00
54918;BME280;40818;50.562;7.454;2023-10-19T17:47:59;95302.91;;;12.62;100.00
54918;BME280;40818;50.562;7.454;2023-10-19T17:58:05;95289.19;;;12.45;100.00
54918;BME280;40818;50.562;7.454;2023-10-19T18:08:09;95300.53;;;12.52;100.00
54918;BME280;40818;50.562;7.454;2023-10-19T18:18:16;95286.16;;;12.64;100.00
54918;BME280;40818;50.562;7.454;2023-10-19T18:28:19;95283.91;;;12.61;100.00
54918;BME280;40818;50.562;7.454;2023-10-19T18:38:25;95279.72;;;12.52;100.00
54918;BME280;40818;50.562;7.454;2023-10-19T18:48:29;95256.81;;;12.48;100.00
54918;BME280;40818;50.562;7.454;2023-10-19T18:58:35;95254.75;;;12.43;100.00
54918;BME280;40818;50.562;7.454;2023-10-19T19:08:40;95256.34;;;12.44;100.00
54918;BME280;40818;50.562;7.454;2023-10-19T19:18:46;95243.75;;;12.33;100.00
54918;BME280;40818;50.562;7.454;2023-10-19T19:28:49;95227.69;;;12.29;100.00
54918;BME280;40818;50.562;7.454;2023-10-19T19:38:55;95216.09;;;12.32;100.00
54918;BME280;40818;50.562;7.454;2023-10-19T19:49:00;95198.19;;;12.37;100.00
54918;BME280;40818;50.562;7.454;2023-10-19T19:59:07;95197.03;;;12.39;100.00
54918;BME280;40818;50.562;7.454;2023-10-19T20:09:10;95203.03;;;12.40;100.00
54918;BME280;40818;50.562;7.454;2023-10-19T20:19:16;95185.47;;;12.42;100.00
54918;BME280;40818;50.562;7.454;2023-10-19T20:29:20;95194.72;;;12.44;100.00
54918;BME280;40818;50.562;7.454;2023-10-19T20:39:26;95167.56;;;12.47;100.00
54918;BME280;40818;50.562;7.454;2023-10-19T20:49:30;95147.06;;;12.44;100.00
54918;BME280;40818;50.562;7.454;2023-10-19T20:59:36;95149.41;;;12.39;100.00
54918;BME280;40818;50.562;7.454;2023-10-19T21:09:40;95131.13;;;12.47;100.00
54918;BME280;40818;50.562;7.454;2023-10-19T21:19:47;95103.31;;;12.48;100.00
54918;BME280;40818;50.562;7.454;2023-10-19T21:29:50;95085.28;;;12.46;100.00
54918;BME280;40818;50.562;7.454;2023-10-19T21:39:56;95095.97;;;12.51;100.00
